Terminal Aerodrome Forecast
Issued by NWS Cleveland, OH

Home | Current Version | Previous Version | Text Only | Print | Product List | Glossary Off
Versions: 1 2 3 4 5 6 7 8 9 10 11 12 13 14 15 16 17 18 19 20 21 22 23 24 25 26 27 28 29 30

000
FTUS41 KCLE 310300 AAA
TAFCLE
TAF AMD
KCLE 310329Z 3103/0106 VRB04KT P6SM BKN080 OVC250
     FM310530 14006KT 6SM -SHRA OVC045 WS020/25040KT
      TEMPO 3106/3110 4SM -RA BR OVC025
     FM311100 22012KT P6SM BKN025 OVC080
     FM311400 35010KT P6SM BKN030
     FM312100 33007KT P6SM BKN050=

USA.gov is the U.S. government's official web portal to all federal, state and local government web resources and services.